Bookmark and Share
Track history (hours):
 

Ct Longford

Last reported at 2013-Aug-02 09:15 UTC. Time now 2014-Apr-16 13:44 UTC.
Position N 26°46' W 079°54'.
Warning: this ship's position is months out of date.

Length 117 m; draft 7.5 m.

Type: Tanker. MMSI: 249706000.

NotesDate/timePositionNaut miles runAvg speedWind from/ knotsBaromVisibWave heightAir tempDewpointWater temp
2013-Aug-02 09:15N 26°46' W 079°54'811.0
2013-Aug-02 08:33N 26°39' W 079°54'1010.5
2013-Aug-02 07:33N 26°28' W 079°55'9 9.5
2013-Aug-02 06:33N 26°19' W 079°57'9 9.2
2013-Aug-02 05:33N 26°10' W 080°01'7 7.3
2013-Aug-02 04:33N 26°06' W 080°07'0 0.0
2013-Aug-01 15:14N 26°06' W 080°07'0 0.0
2013-Aug-01 14:34N 26°06' W 080°07'0 0.0
2013-Aug-01 13:33N 26°06' W 080°07'0 0.0
2013-Aug-01 12:33N 26°06' W 080°07'0 0.0
2013-Aug-01 11:33N 26°06' W 080°07'0 0.0
2013-Aug-01 10:33N 26°06' W 080°07'0 0.0
2013-Aug-01 09:33N 26°06' W 080°07'0 0.0
2013-Aug-01 08:33N 26°06' W 080°07'0 0.0
2013-Aug-01 07:33N 26°06' W 080°07'0 0.0
2013-Aug-01 06:33N 26°06' W 080°07'0 0.0
2013-Aug-01 05:33N 26°06' W 080°07'0 0.0
2013-Aug-01 04:33N 26°06' W 080°07'0 0.0
2013-Aug-01 03:33N 26°06' W 080°07'0 0.0
2013-Aug-01 02:33N 26°06' W 080°07'0 0.1
2013-Aug-01 01:33N 26°06' W 080°07'5 5.5
2013-Aug-01 00:34N 26°05' W 080°01'2 2.1
2013-Jul-31 23:33N 26°04' W 079°60'2 1.9
2013-Jul-31 22:33N 26°05' W 080°01'1 1.4
2013-Jul-31 21:33N 26°06' W 080°02'2 1.5
2013-Jul-31 20:33N 26°04' W 080°02'2 1.9
2013-Jul-31 19:33N 26°06' W 080°02'2 1.9
2013-Jul-31 18:33N 26°04' W 080°02'1 1.0
2013-Jul-31 17:33N 26°04' W 080°03'4 3.8
2013-Jul-31 16:33N 26°06' W 079°59'8 7.6
2013-Jul-31 15:33N 26°08' W 079°51'7 6.8
2013-Jul-31 14:33N 26°11' W 079°44'6 5.9
2013-Jul-31 13:33N 26°13' W 079°38'5 5.4
2013-Jul-31 12:33N 26°15' W 079°32'6 5.7
2013-Jul-31 11:32N 26°17' W 079°26'6 5.9
2013-Jul-31 10:33N 26°19' W 079°20'7 6.0
2013-Jul-31 09:27N 26°22' W 079°14'5 6.0
2013-Jul-31 08:33N 26°24' W 079°08'7 6.8
2013-Jul-31 07:33N 26°26' W 079°01'7 7.3
2013-Jul-31 06:34N 26°29' W 078°53'5 5.4
2013-Jul-31 05:34N 26°31' W 078°48'0 0.1
2013-Jul-31 04:33N 26°31' W 078°48'0 0.0
2013-Jul-31 03:33N 26°31' W 078°48'0 0.0
2013-Jul-31 02:33N 26°31' W 078°48'0 0.0
2013-Jul-31 01:33N 26°31' W 078°48'0 0.1
2013-Jul-31 00:33N 26°31' W 078°48'0 0.0
2013-Jul-30 23:33N 26°31' W 078°48'3 3.3
2013-Jul-30 22:33N 26°28' W 078°47'8 7.8
2013-Jul-30 21:33N 26°24' W 078°39'9 9.1
2013-Jul-30 20:31N 26°21' W 078°30'  

Dump ship's entire track history

sailing weather and tide predictions

Ct Longford — 9HYM9 — position and weather